Time;durP1;ratioP1;P1;durP2;ratioP2;P2;SDS_P1;SDS_P2;PMS_P1;PMS_P2;Temp;Humidity;BMP_temperature;BMP_pressure;BME280_temperature;BME280_humidity;BME280_pressure;Samples;Min_cycle;Max_cycle;Signal;HPM_P1;HPM_P2
2023/04/08 00:00:35;;;;;;;14.57;12.43;;;8.70;99.90;;;;;;5072604;28;20185;-65
2023/04/08 00:03:01;;;;;;;11.43;10.23;;;8.70;99.90;;;;;;5073639;28;20194;-64
2023/04/08 00:05:27;;;;;;;14.77;10.73;;;8.80;99.90;;;;;;5074036;28;20170;-64
2023/04/08 00:07:52;;;;;;;16.73;11.03;;;8.70;99.90;;;;;;5074286;28;20166;-64
2023/04/08 00:10:18;;;;;;;11.97;10.70;;;8.70;99.90;;;;;;5073841;28;20675;-63
2023/04/08 00:12:44;;;;;;;13.50;9.63;;;8.70;99.90;;;;;;5073974;28;20169;-64
2023/04/08 00:15:10;;;;;;;17.30;11.20;;;8.70;99.90;;;;;;5073894;28;20682;-65
2023/04/08 00:17:35;;;;;;;11.63;10.50;;;8.70;99.90;;;;;;5073484;28;20251;-64
2023/04/08 00:20:01;;;;;;;13.40;11.00;;;8.70;99.90;;;;;;5053530;28;20226;-63
2023/04/08 00:22:27;;;;;;;14.83;10.97;;;8.70;99.90;;;;;;5053574;28;20244;-63
2023/04/08 00:24:53;;;;;;;13.37;10.40;;;8.70;99.90;;;;;;5071992;28;20217;-64
2023/04/08 00:27:18;;;;;;;16.40;11.30;;;8.70;99.90;;;;;;5072188;28;20206;-64
2023/04/08 00:29:44;;;;;;;11.10;10.00;;;8.70;99.90;;;;;;5073020;28;20593;-63
2023/04/08 00:32:09;;;;;;;13.47;11.43;;;8.70;99.90;;;;;;5073261;28;20178;-65
2023/04/08 00:34:36;;;;;;;15.40;10.43;;;8.70;99.90;;;;;;5073564;28;20253;-63
2023/04/08 00:37:02;;;;;;;12.47;10.53;;;8.70;99.90;;;;;;5073333;28;20281;-65
2023/04/08 00:39:27;;;;;;;15.17;11.37;;;8.80;99.90;;;;;;5073069;28;20689;-64
2023/04/08 00:41:53;;;;;;;12.00;9.67;;;8.70;99.90;;;;;;5072978;28;20174;-64
2023/04/08 00:44:19;;;;;;;11.63;10.43;;;8.70;99.90;;;;;;5073627;28;20171;-64
2023/04/08 00:46:45;;;;;;;11.90;10.30;;;8.70;99.90;;;;;;5072673;28;20579;-65
2023/04/08 00:49:11;;;;;;;11.77;9.97;;;8.70;99.90;;;;;;5072959;28;20182;-64
2023/04/08 00:51:36;;;;;;;22.30;11.13;;;8.70;99.90;;;;;;5072955;28;20185;-65
2023/04/08 00:54:03;;;;;;;13.13;10.37;;;8.70;99.90;;;;;;5073122;28;20636;-65
2023/04/08 00:56:31;;;;;;;12.10;10.27;;;8.80;99.90;;;;;;5072553;28;20277;-65
2023/04/08 00:58:58;;;;;;;15.17;10.90;;;8.80;99.90;;;;;;5071565;28;20174;-64
2023/04/08 01:01:54;;;;;;;13.10;10.67;;;8.80;99.90;;;;;;5072310;28;20181;-64
2023/04/08 01:04:57;;;;;;;19.60;11.20;;;8.80;99.90;;;;;;5070913;28;20555;-64
2023/04/08 01:07:35;;;;;;;11.07;9.90;;;8.90;99.90;;;;;;5072370;28;20202;-64
2023/04/08 01:10:15;;;;;;;11.57;9.83;;;8.90;99.90;;;;;;5072346;28;20181;-64
2023/04/08 01:12:47;;;;;;;11.37;10.23;;;8.90;99.90;;;;;;5071374;28;20185;-65
2023/04/08 01:15:13;;;;;;;16.17;10.93;;;8.80;99.90;;;;;;5070047;28;20174;-65
2023/04/08 01:17:40;;;;;;;11.73;10.27;;;8.70;99.90;;;;;;5071109;28;20214;-64
2023/04/08 01:20:07;;;;;;;13.77;10.77;;;8.80;99.90;;;;;;5071234;28;20174;-65
2023/04/08 01:22:57;;;;;;;10.80;9.80;;;8.80;99.90;;;;;;5071275;28;20182;-65
2023/04/08 01:25:28;;;;;;;13.67;11.67;;;8.80;99.90;;;;;;5072251;28;20759;-65
2023/04/08 01:27:56;;;;;;;13.97;11.50;;;8.80;99.90;;;;;;5071870;28;20253;-65
2023/04/08 01:30:24;;;;;;;16.23;11.30;;;8.80;99.90;;;;;;5071954;28;20174;-65
2023/04/08 01:32:54;;;;;;;12.87;11.67;;;8.80;99.90;;;;;;5070415;28;20178;-65
2023/04/08 01:35:20;;;;;;;15.20;12.23;;;8.80;99.90;;;;;;5072363;28;20170;-65
2023/04/08 01:37:49;;;;;;;14.17;10.70;;;8.70;99.90;;;;;;5070433;28;20213;-65
2023/04/08 01:40:15;;;;;;;14.47;10.80;;;8.70;99.90;;;;;;5071637;28;20215;-66
2023/04/08 01:42:42;;;;;;;17.10;11.77;;;8.60;99.90;;;;;;5071806;28;20274;-64
2023/04/08 01:45:09;;;;;;;15.27;12.67;;;8.60;99.90;;;;;;5071901;28;20166;-65
2023/04/08 01:47:35;;;;;;;13.30;11.93;;;8.60;99.90;;;;;;5071246;28;20551;-65
2023/04/08 01:50:02;;;;;;;13.20;11.80;;;8.60;99.90;;;;;;5071508;28;20249;-65
2023/04/08 01:52:29;;;;;;;18.03;11.93;;;8.60;99.90;;;;;;5071302;28;20206;-65
2023/04/08 01:54:55;;;;;;;15.87;12.23;;;8.60;99.90;;;;;;5054663;28;20201;-65
2023/04/08 01:57:27;;;;;;;18.97;11.13;;;8.60;99.90;;;;;;5050722;28;20206;-65
2023/04/08 01:59:56;;;;;;;20.47;12.27;;;8.60;99.90;;;;;;5062630;28;20270;-65
2023/04/08 02:02:25;;;;;;;15.13;11.97;;;8.60;99.90;;;;;;5070576;28;20193;-65
2023/04/08 02:04:50;;;;;;;14.23;12.10;;;8.60;99.90;;;;;;5071481;28;20537;-64
2023/04/08 02:07:17;;;;;;;14.07;12.67;;;8.70;99.90;;;;;;5071592;28;20205;-65
2023/04/08 02:09:43;;;;;;;18.10;13.43;;;8.60;99.90;;;;;;5070810;28;20198;-64
2023/04/08 02:12:08;;;;;;;17.80;13.17;;;8.60;99.90;;;;;;5071678;28;20544;-64
2023/04/08 02:14:34;;;;;;;16.70;12.70;;;8.50;99.90;;;;;;5071219;28;20261;-64
2023/04/08 02:17:18;;;;;;;14.27;10.77;;;8.50;99.90;;;;;;5071337;28;20208;-64
2023/04/08 02:20:04;;;;;;;17.17;12.70;;;8.50;99.90;;;;;;5069638;28;20208;-65
2023/04/08 02:22:48;;;;;;;15.87;12.90;;;8.50;99.90;;;;;;5071430;28;20188;-64
2023/04/08 02:25:16;;;;;;;25.67;12.33;;;8.50;99.90;;;;;;5071277;28;20516;-65
2023/04/08 02:27:44;;;;;;;17.30;13.10;;;8.40;99.90;;;;;;5071394;28;20194;-64
2023/04/08 02:30:12;;;;;;;20.67;12.47;;;8.50;99.90;;;;;;5070759;28;20198;-65
2023/04/08 02:32:38;;;;;;;16.70;13.37;;;8.40;99.90;;;;;;5071424;28;20174;-64
2023/04/08 02:35:04;;;;;;;13.37;11.47;;;8.40;99.90;;;;;;5071233;28;20182;-65
2023/04/08 02:37:31;;;;;;;26.47;13.30;;;8.40;99.90;;;;;;5071306;28;20251;-66
2023/04/08 02:39:57;;;;;;;16.80;11.43;;;8.40;99.90;;;;;;5070438;28;20178;-66
2023/04/08 02:42:23;;;;;;;18.20;12.03;;;8.30;99.90;;;;;;5071035;28;20194;-66
2023/04/08 02:44:49;;;;;;;16.13;12.80;;;8.30;99.90;;;;;;5070921;28;20181;-65
2023/04/08 02:47:15;;;;;;;17.17;11.73;;;8.30;99.90;;;;;;5070902;28;20209;-66
2023/04/08 02:49:41;;;;;;;16.47;13.17;;;8.30;99.90;;;;;;5074016;28;20530;-66
2023/04/08 02:52:06;;;;;;;16.67;13.63;;;8.30;99.90;;;;;;5075066;28;20179;-65
2023/04/08 02:54:32;;;;;;;13.97;11.53;;;8.30;99.90;;;;;;5075155;28;20183;-66
2023/04/08 02:56:57;;;;;;;14.93;11.30;;;8.40;99.90;;;;;;5074679;28;20232;-66
2023/04/08 02:59:23;;;;;;;14.83;12.37;;;8.30;99.90;;;;;;5074996;28;20848;-65
2023/04/08 03:01:49;;;;;;;15.77;12.30;;;8.30;99.90;;;;;;5074802;28;20170;-64
2023/04/08 03:04:15;;;;;;;19.20;11.50;;;8.30;99.90;;;;;;5075015;28;20524;-65
2023/04/08 03:06:41;;;;;;;15.40;12.47;;;8.30;99.90;;;;;;5073349;28;20206;-66
2023/04/08 03:09:06;;;;;;;14.27;12.13;;;8.30;99.90;;;;;;5074318;28;20635;-65
2023/04/08 03:11:32;;;;;;;16.53;12.63;;;8.30;99.90;;;;;;5074722;28;20174;-65
2023/04/08 03:13:57;;;;;;;17.40;12.77;;;8.30;99.90;;;;;;5074690;28;20174;-64
2023/04/08 03:16:23;;;;;;;18.43;11.90;;;8.30;99.90;;;;;;5074711;28;20847;-66
2023/04/08 03:18:50;;;;;;;19.33;12.33;;;8.30;99.90;;;;;;5074275;28;20186;-64
2023/04/08 03:21:16;;;;;;;20.63;12.90;;;8.30;99.90;;;;;;5074350;28;20181;-65
2023/04/08 03:23:41;;;;;;;20.53;12.63;;;8.30;99.90;;;;;;5074108;28;20182;-65
2023/04/08 03:26:07;;;;;;;18.80;13.80;;;8.30;99.90;;;;;;5074532;28;20213;-65
2023/04/08 03:28:33;;;;;;;18.00;13.60;;;8.30;99.90;;;;;;5072963;28;20182;-65
2023/04/08 03:30:59;;;;;;;18.17;13.07;;;8.30;99.90;;;;;;5074155;28;20542;-65
2023/04/08 03:33:25;;;;;;;22.93;12.03;;;8.30;99.90;;;;;;5074045;28;20170;-65
2023/04/08 03:35:52;;;;;;;26.70;13.97;;;8.40;99.90;;;;;;5074400;28;20194;-65
2023/04/08 03:38:18;;;;;;;28.73;14.47;;;8.40;99.90;;;;;;5074164;28;20177;-64
2023/04/08 03:40:43;;;;;;;20.80;14.23;;;8.50;99.90;;;;;;5073949;28;20168;-66
2023/04/08 03:43:10;;;;;;;14.10;12.60;;;8.50;99.90;;;;;;5072487;28;20198;-66
2023/04/08 03:45:36;;;;;;;14.53;12.67;;;8.50;99.90;;;;;;5073659;28;20174;-66
2023/04/08 03:48:02;;;;;;;18.37;11.10;;;8.50;99.90;;;;;;5074212;28;20176;-65
2023/04/08 03:50:27;;;;;;;18.43;11.63;;;8.50;99.90;;;;;;5073468;28;20181;-65
2023/04/08 03:52:53;;;;;;;17.63;12.53;;;8.50;99.90;;;;;;5073362;28;20189;-65
2023/04/08 03:55:18;;;;;;;13.60;12.27;;;8.50;99.90;;;;;;5073803;28;20170;-65
2023/04/08 03:57:44;;;;;;;17.97;11.97;;;8.50;99.90;;;;;;5073910;28;20255;-66
2023/04/08 04:00:10;;;;;;;20.30;13.63;;;8.60;99.90;;;;;;5072972;28;20175;-64
2023/04/08 04:02:36;;;;;;;19.30;13.13;;;8.60;99.90;;;;;;5073650;28;20235;-65
2023/04/08 04:05:02;;;;;;;13.40;12.00;;;8.60;99.90;;;;;;5073760;28;20178;-65
2023/04/08 04:07:27;;;;;;;16.73;12.43;;;8.60;99.90;;;;;;5073520;28;20212;-65
2023/04/08 04:09:55;;;;;;;18.97;13.47;;;8.60;99.90;;;;;;5073448;28;20587;-65
2023/04/08 04:12:21;;;;;;;25.27;14.47;;;8.60;99.90;;;;;;5073719;28;20440;-65
2023/04/08 04:14:47;;;;;;;20.80;14.03;;;8.60;99.90;;;;;;5073934;28;20170;-65
2023/04/08 04:17:12;;;;;;;16.00;12.77;;;8.60;99.90;;;;;;5073174;28;20234;-66
2023/04/08 04:19:38;;;;;;;14.77;12.27;;;8.60;99.90;;;;;;5073230;28;20186;-64
2023/04/08 04:22:03;;;;;;;20.37;14.40;;;8.50;99.90;;;;;;5073525;28;20182;-65
2023/04/08 04:24:29;;;;;;;14.67;12.80;;;8.50;99.90;;;;;;5073849;28;20186;-65
2023/04/08 04:26:55;;;;;;;23.47;13.47;;;8.50;99.90;;;;;;5073190;28;20680;-65
2023/04/08 04:29:20;;;;;;;15.23;12.40;;;8.50;99.90;;;;;;5073251;28;20163;-65
2023/04/08 04:31:46;;;;;;;35.03;14.00;;;8.50;99.90;;;;;;5073055;28;20595;-65
2023/04/08 04:34:12;;;;;;;19.20;13.17;;;8.40;99.90;;;;;;5073294;28;20177;-64
2023/04/08 04:36:37;;;;;;;17.70;13.17;;;8.40;99.90;;;;;;5072895;28;20672;-65
2023/04/08 04:39:03;;;;;;;20.47;14.13;;;8.50;99.90;;;;;;5073030;28;20249;-65
2023/04/08 04:41:28;;;;;;;19.80;14.27;;;8.50;99.90;;;;;;5072527;28;20174;-64
2023/04/08 04:43:54;;;;;;;25.80;15.30;;;8.50;99.90;;;;;;5073173;28;20181;-65
2023/04/08 04:46:20;;;;;;;23.37;14.77;;;8.50;99.90;;;;;;5072649;28;20209;-65
2023/04/08 04:48:45;;;;;;;23.07;15.30;;;8.50;99.90;;;;;;5072924;28;20296;-65
2023/04/08 04:51:11;;;;;;;22.13;14.43;;;8.50;99.90;;;;;;5072151;28;20185;-65
2023/04/08 04:53:36;;;;;;;20.07;13.67;;;8.50;99.90;;;;;;5072856;28;20174;-65
2023/04/08 04:56:02;;;;;;;16.53;13.73;;;8.40;99.90;;;;;;5072675;28;20202;-65
2023/04/08 04:58:28;;;;;;;23.13;14.30;;;8.40;99.90;;;;;;5072792;28;20174;-66
2023/04/08 05:00:54;;;;;;;20.90;15.40;;;8.40;99.90;;;;;;5071139;28;20553;-65
2023/04/08 05:03:19;;;;;;;27.80;14.53;;;8.40;99.90;;;;;;5072355;28;20277;-65
2023/04/08 05:05:52;;;;;;;18.93;14.23;;;8.40;99.90;;;;;;5072214;28;20241;-66
2023/04/08 05:08:19;;;;;;;20.40;14.33;;;8.40;99.90;;;;;;5072585;28;20178;-65
2023/04/08 05:10:44;;;;;;;31.83;16.17;;;8.40;99.90;;;;;;5071982;28;20259;-66
2023/04/08 05:13:10;;;;;;;28.47;16.03;;;8.40;99.90;;;;;;5071408;28;20173;-64
2023/04/08 05:15:36;;;;;;;24.20;14.63;;;8.20;99.90;;;;;;5072057;28;20170;-65
2023/04/08 05:18:01;;;;;;;21.63;13.97;;;8.10;99.90;;;;;;5072363;28;20262;-65
2023/04/08 05:20:27;;;;;;;22.70;13.60;;;8.00;99.90;;;;;;5070771;28;20181;-65
2023/04/08 05:22:53;;;;;;;24.13;14.97;;;8.00;99.90;;;;;;5071974;28;20178;-65
2023/04/08 05:25:18;;;;;;;23.43;15.17;;;7.90;99.90;;;;;;5072015;28;20318;-65
2023/04/08 05:27:44;;;;;;;26.57;15.37;;;7.90;99.90;;;;;;5071930;28;20210;-65
2023/04/08 05:30:10;;;;;;;25.20;14.43;;;7.90;99.90;;;;;;5071848;28;20206;-65
2023/04/08 05:32:36;;;;;;;23.10;15.40;;;7.90;99.90;;;;;;5052055;28;20587;-65
2023/04/08 05:35:02;;;;;;;24.20;15.60;;;8.00;99.90;;;;;;5052054;28;20207;-65
2023/04/08 05:37:28;;;;;;;28.30;15.30;;;8.10;99.90;;;;;;5070750;28;20274;-65
2023/04/08 05:39:53;;;;;;;32.57;16.53;;;8.20;99.90;;;;;;5071697;28;20269;-65
2023/04/08 05:42:19;;;;;;;27.80;17.50;;;8.30;99.90;;;;;;5070829;28;20196;-65
2023/04/08 05:44:45;;;;;;;23.87;15.90;;;8.30;99.90;;;;;;5072036;28;20174;-65
2023/04/08 05:47:10;;;;;;;35.03;18.73;;;8.40;99.90;;;;;;5071342;28;20214;-65
2023/04/08 05:49:36;;;;;;;36.50;19.90;;;8.40;99.90;;;;;;5071295;28;20255;-64
2023/04/08 05:52:02;;;;;;;28.60;17.53;;;8.50;99.90;;;;;;5071904;28;20188;-65
2023/04/08 05:54:28;;;;;;;29.47;19.00;;;8.50;99.90;;;;;;5071590;28;20554;-64
2023/04/08 05:56:53;;;;;;;30.90;18.63;;;8.50;99.90;;;;;;5071337;28;20212;-65
2023/04/08 05:59:19;;;;;;;32.83;18.80;;;8.60;99.90;;;;;;5071339;28;20182;-65
2023/04/08 06:01:45;;;;;;;33.57;18.93;;;8.60;99.90;;;;;;5071506;28;20185;-65
2023/04/08 06:04:10;;;;;;;38.10;18.90;;;8.70;99.90;;;;;;5070159;28;20182;-65
2023/04/08 06:06:39;;;;;;;37.90;19.63;;;8.70;99.90;;;;;;5070629;28;20581;-64
2023/04/08 06:09:05;;;;;;;31.17;19.37;;;8.70;99.90;;;;;;5061002;28;20198;-65
2023/04/08 06:11:31;;;;;;;31.40;19.40;;;8.70;99.90;;;;;;5062353;28;20247;-64
2023/04/08 06:13:56;;;;;;;34.03;16.43;;;8.70;99.90;;;;;;5071441;28;20185;-64
2023/04/08 06:16:22;;;;;;;28.57;17.80;;;8.80;99.90;;;;;;5070958;28;20237;-64
2023/04/08 06:18:48;;;;;;;33.53;17.03;;;8.90;99.90;;;;;;5071509;28;20181;-65
2023/04/08 06:21:13;;;;;;;33.30;19.33;;;8.90;99.90;;;;;;5070613;28;20185;-64
2023/04/08 06:23:39;;;;;;;39.37;18.40;;;9.00;99.90;;;;;;5071041;28;20178;-64
2023/04/08 06:26:04;;;;;;;36.70;19.47;;;9.10;99.90;;;;;;5071466;28;20210;-65
2023/04/08 06:28:30;;;;;;;27.83;16.90;;;9.20;99.90;;;;;;5071335;28;20178;-65
2023/04/08 06:30:57;;;;;;;34.53;17.93;;;9.20;99.90;;;;;;5071121;28;20217;-65
2023/04/08 06:33:22;;;;;;;33.17;19.10;;;9.20;99.90;;;;;;5071235;28;20679;-64
2023/04/08 06:35:48;;;;;;;39.87;20.03;;;9.30;99.90;;;;;;5071245;28;20256;-65
2023/04/08 06:38:14;;;;;;;45.67;27.00;;;9.30;99.90;;;;;;5071361;28;20182;-65
2023/04/08 06:40:40;;;;;;;41.40;22.53;;;9.20;99.90;;;;;;5070557;28;20190;-65
2023/04/08 06:43:08;;;;;;;56.23;24.90;;;9.30;99.90;;;;;;5071344;28;20174;-65
2023/04/08 06:45:34;;;;;;;36.97;19.57;;;9.50;99.90;;;;;;5070876;28;20182;-64
2023/04/08 06:48:00;;;;;;;41.03;19.63;;;9.60;99.90;;;;;;5071361;28;20264;-65
2023/04/08 06:50:26;;;;;;;32.47;20.00;;;9.80;99.90;;;;;;5070911;28;20268;-65
2023/04/08 06:52:52;;;;;;;38.37;20.77;;;9.80;99.90;;;;;;5073422;28;20198;-65
2023/04/08 06:55:17;;;;;;;38.57;21.93;;;9.90;99.90;;;;;;5068728;28;20190;-65
2023/04/08 06:57:43;;;;;;;38.73;21.07;;;10.00;99.90;;;;;;5067610;28;20206;-64
2023/04/08 07:00:09;;;;;;;39.00;18.90;;;10.10;99.90;;;;;;5069377;28;20189;-64
2023/04/08 07:02:34;;;;;;;41.43;19.77;;;10.20;99.90;;;;;;5070919;28;20174;-64
2023/04/08 07:05:00;;;;;;;37.67;18.23;;;10.30;99.90;;;;;;5070811;28;20315;-65
2023/04/08 07:07:26;;;;;;;34.40;18.60;;;10.40;99.90;;;;;;5070735;28;20210;-64
2023/04/08 07:09:51;;;;;;;32.90;18.50;;;10.40;99.90;;;;;;5070309;28;20361;-64
2023/04/08 07:12:17;;;;;;;33.03;18.50;;;10.40;99.90;;;;;;5070454;28;20175;-64
2023/04/08 07:14:42;;;;;;;31.50;16.90;;;10.50;99.90;;;;;;5070636;28;20659;-65
2023/04/08 07:17:08;;;;;;;29.47;18.97;;;10.50;99.90;;;;;;5068565;28;20244;-64
2023/04/08 07:19:34;;;;;;;32.17;18.77;;;10.60;99.90;;;;;;5069831;28;20192;-65
2023/04/08 07:22:00;;;;;;;30.73;19.87;;;10.80;99.90;;;;;;5070741;28;20174;-64
2023/04/08 07:24:26;;;;;;;27.93;19.00;;;11.00;99.90;;;;;;5070472;28;20201;-66
2023/04/08 07:26:51;;;;;;;40.43;20.07;;;11.10;99.90;;;;;;5070573;28;20598;-65
2023/04/08 07:29:17;;;;;;;32.40;18.03;;;11.20;99.90;;;;;;5069910;28;20631;-65
2023/04/08 07:31:43;;;;;;;33.77;19.87;;;11.40;99.90;;;;;;5070562;28;20217;-65
2023/04/08 07:34:09;;;;;;;33.60;18.77;;;11.50;99.90;;;;;;5068169;28;20174;-65
2023/04/08 07:36:35;;;;;;;30.03;17.80;;;11.60;99.90;;;;;;5072879;28;20198;-65
2023/04/08 07:39:01;;;;;;;28.47;17.00;;;11.60;99.90;;;;;;5074129;28;20190;-65
2023/04/08 07:41:27;;;;;;;28.10;17.10;;;11.60;99.90;;;;;;5073660;28;20636;-64
2023/04/08 07:43:52;;;;;;;33.60;18.07;;;11.60;99.90;;;;;;5074027;28;20310;-65
2023/04/08 07:46:19;;;;;;;36.47;19.60;;;11.80;99.90;;;;;;5073922;28;20201;-65
2023/04/08 07:48:45;;;;;;;35.17;18.63;;;12.10;99.90;;;;;;5073567;28;20189;-66
2023/04/08 07:51:11;;;;;;;30.33;18.43;;;12.70;99.90;;;;;;5073784;28;20596;-65
2023/04/08 07:53:37;;;;;;;29.87;16.67;;;12.90;99.90;;;;;;5071759;28;20273;-65
2023/04/08 07:56:09;;;;;;;21.73;15.00;;;13.10;99.90;;;;;;5054008;28;20199;-64
2023/04/08 07:58:35;;;;;;;22.20;15.47;;;13.20;99.90;;;;;;5057304;28;20182;-64
2023/04/08 08:01:00;;;;;;;25.43;16.43;;;13.30;69.70;;;;;;5072049;28;20235;-64
2023/04/08 08:03:26;;;;;;;26.37;16.33;;;13.40;89.60;;;;;;5072972;28;20212;-65
2023/04/08 08:05:51;;;;;;;27.43;14.73;;;13.40;25.40;;;;;;5073437;28;20745;-65
2023/04/08 08:08:17;;;;;;;26.40;15.83;;;13.00;9.40;;;;;;5073546;28;20299;-65
2023/04/08 08:10:43;;;;;;;25.50;14.83;;;12.80;34.80;;;;;;5072725;28;20305;-65
2023/04/08 08:13:08;;;;;;;23.30;15.30;;;12.50;80.20;;;;;;5072373;28;20174;-64
2023/04/08 08:15:34;;;;;;;22.33;15.47;;;12.50;54.80;;;;;;5072961;28;20182;-64
2023/04/08 08:18:00;;;;;;;22.97;15.67;;;12.30;50.10;;;;;;5073452;28;20177;-64
2023/04/08 08:20:26;;;;;;;28.80;17.93;;;12.30;95.30;;;;;;5051684;28;20175;-64
2023/04/08 08:22:51;;;;;;;28.60;15.90;;;12.40;67.10;;;;;;5053243;28;20550;-65
2023/04/08 08:25:17;;;;;;;24.70;15.07;;;12.60;20.70;;;;;;5073218;28;20171;-65
2023/04/08 08:27:44;;;;;;;28.10;17.03;;;12.70;1.00;;;;;;5073124;28;20627;-64
2023/04/08 08:30:10;;;;;;;27.37;16.50;;;12.90;1.00;;;;;;5072832;28;20213;-63
2023/04/08 08:32:36;;;;;;;28.73;17.67;;;13.10;10.10;;;;;;5073237;28;20193;-63
2023/04/08 08:35:01;;;;;;;27.57;16.97;;;13.40;1.00;;;;;;5073153;28;20183;-64
2023/04/08 08:37:27;;;;;;;25.60;15.93;;;13.50;1.00;;;;;;5070920;28;20198;-64
2023/04/08 08:39:53;;;;;;;30.17;18.70;;;13.40;1.00;;;;;;5070420;28;20192;-65
2023/04/08 08:42:23;;;;;;;28.53;17.23;;;13.40;1.00;;;;;;5071989;28;20190;-64
2023/04/08 08:44:48;;;;;;;28.30;16.73;;;13.40;1.00;;;;;;5072762;28;20687;-65
2023/04/08 08:47:15;;;;;;;27.03;17.10;;;13.40;1.00;;;;;;5072564;28;20212;-64
2023/04/08 08:49:42;;;;;;;29.80;16.90;;;13.30;1.00;;;;;;5072167;28;20263;-65
2023/04/08 08:52:07;;;;;;;29.50;15.87;;;13.10;1.00;;;;;;5072899;28;20249;-64
2023/04/08 08:54:33;;;;;;;25.23;16.63;;;13.00;1.00;;;;;;5072399;28;20257;-64
2023/04/08 08:56:58;;;;;;;26.07;15.87;;;12.90;5.80;;;;;;5072805;28;20780;-64
2023/04/08 08:59:24;;;;;;;30.40;17.63;;;12.90;1.00;;;;;;5071962;28;20189;-65
2023/04/08 09:01:50;;;;;;;27.00;15.97;;;12.90;1.00;;;;;;5072682;28;20178;-64
2023/04/08 09:04:18;;;;;;;28.27;16.07;;;12.80;1.00;;;;;;5072453;28;20283;-65
2023/04/08 09:06:49;;;;;;;29.77;17.53;;;12.80;1.00;;;;;;5072520;28;20622;-64
2023/04/08 09:09:18;;;;;;;27.50;16.73;;;12.90;5.20;;;;;;5071785;28;20265;-63
2023/04/08 09:11:45;;;;;;;34.00;18.37;;;12.90;1.00;;;;;;5070047;28;20178;-64
2023/04/08 09:14:18;;;;;;;39.53;19.47;;;13.00;1.00;;;;;;5071924;28;20535;-65
2023/04/08 09:16:44;;;;;;;32.47;19.77;;;13.00;8.30;;;;;;5072113;28;20571;-64
2023/04/08 09:19:10;;;;;;;36.70;20.53;;;13.00;1.00;;;;;;5071615;28;20193;-64
2023/04/08 09:21:37;;;;;;;28.80;18.70;;;12.90;1.00;;;;;;5071926;28;20184;-64
2023/04/08 09:24:03;;;;;;;31.87;17.90;;;12.90;1.00;;;;;;5072191;28;20531;-63
2023/04/08 09:26:29;;;;;;;27.47;17.17;;;13.00;11.00;;;;;;5071822;28;20343;-63
2023/04/08 09:29:01;;;;;;;31.47;19.63;;;13.00;1.00;;;;;;5071943;28;20186;-65
2023/04/08 09:31:37;;;;;;;32.97;18.63;;;13.00;16.80;;;;;;5071222;28;20200;-64
2023/04/08 09:34:08;;;;;;;24.77;18.23;;;13.00;3.30;;;;;;5071702;28;20182;-64
2023/04/08 09:36:34;;;;;;;26.57;17.30;;;12.90;10.90;;;;;;5071849;28;20193;-65
2023/04/08 09:39:00;;;;;;;28.10;17.07;;;13.00;28.30;;;;;;5071565;28;20192;-66
2023/04/08 09:41:27;;;;;;;24.20;16.70;;;12.80;16.20;;;;;;5071365;28;20181;-64
2023/04/08 09:43:55;;;;;;;25.23;15.80;;;12.70;67.80;;;;;;5071659;28;20635;-65
2023/04/08 09:46:28;;;;;;;24.30;16.03;;;12.70;34.70;;;;;;5071735;28;20735;-64
2023/04/08 09:49:11;;;;;;;24.83;16.80;;;12.60;17.50;;;;;;5071185;28;20632;-64
2023/04/08 09:51:48;;;;;;;23.23;15.90;;;12.60;35.00;;;;;;5071531;28;20200;-65
2023/04/08 09:54:18;;;;;;;25.73;16.30;;;12.60;35.00;;;;;;5071573;28;20533;-65
2023/04/08 09:56:54;;;;;;;23.97;15.87;;;12.50;49.30;;;;;;5071248;28;20213;-65
2023/04/08 09:59:23;;;;;;;26.27;16.93;;;12.50;44.70;;;;;;5070635;28;20177;-65
2023/04/08 10:01:55;;;;;;;21.63;15.00;;;12.50;49.20;;;;;;5071173;28;20251;-64
2023/04/08 10:04:23;;;;;;;26.97;16.93;;;12.40;40.20;;;;;;5071827;28;20206;-65
2023/04/08 10:06:56;;;;;;;26.50;17.27;;;12.40;89.00;;;;;;5071632;28;20217;-65
2023/04/08 10:09:22;;;;;;;19.70;15.57;;;12.40;90.70;;;;;;5082533;28;20337;-65
2023/04/08 10:11:49;;;;;;;18.27;13.63;;;12.40;92.60;;;;;;5071205;28;20246;-64
2023/04/08 10:14:15;;;;;;;18.43;13.50;;;12.50;87.50;;;;;;5071601;28;20177;-65
2023/04/08 10:16:40;;;;;;;13.60;11.37;;;12.70;71.80;;;;;;5066737;28;20660;-64
2023/04/08 10:19:39;;;;;;;11.83;10.63;;;12.90;24.10;;;;;;5071380;28;20279;-65
2023/04/08 10:22:27;;;;;;;12.20;10.47;;;12.60;1.00;;;;;;5051506;28;20205;-65
2023/04/08 10:25:14;;;;;;;14.83;12.50;;;12.40;54.40;;;;;;5054578;28;20190;-65
2023/04/08 10:27:40;;;;;;;13.50;11.03;;;12.60;99.90;;;;;;5071181;28;20209;-64
2023/04/08 10:30:26;;;;;;;17.53;11.47;;;12.60;24.10;;;;;;5070800;28;20178;-64
2023/04/08 10:32:52;;;;;;;16.93;11.83;;;12.60;90.30;;;;;;5071077;28;20174;-65
2023/04/08 10:35:31;;;;;;;12.67;10.40;;;12.70;98.10;;;;;;5071100;28;20181;-65
2023/04/08 10:37:58;;;;;;;16.93;11.40;;;12.90;55.60;;;;;;5070975;28;20178;-64
2023/04/08 10:40:24;;;;;;;11.87;10.70;;;12.90;22.20;;;;;;5070684;28;20181;-64
2023/04/08 10:42:57;;;;;;;12.47;10.53;;;13.00;29.40;;;;;;5069522;28;20671;-64
2023/04/08 10:45:23;;;;;;;12.57;10.93;;;13.10;1.70;;;;;;5071062;28;20624;-64
2023/04/08 10:47:49;;;;;;;14.00;11.00;;;13.20;1.00;;;;;;5069399;28;20217;-65
2023/04/08 10:50:16;;;;;;;13.13;11.80;;;13.20;1.00;;;;;;5068280;28;20182;-65
2023/04/08 10:52:49;;;;;;;13.07;11.20;;;13.30;1.00;;;;;;5070857;28;20620;-65
2023/04/08 10:55:17;;;;;;;15.03;12.10;;;13.30;1.00;;;;;;5069791;28;20234;-65
2023/04/08 10:57:42;;;;;;;15.20;12.03;;;13.10;1.00;;;;;;5069535;28;20701;-65
2023/04/08 11:00:16;;;;;;;15.60;12.13;;;13.10;7.60;;;;;;5070662;28;20178;-65
2023/04/08 11:02:42;;;;;;;19.17;11.47;;;13.30;5.20;;;;;;5070950;28;20554;-65
2023/04/08 11:05:09;;;;;;;14.53;12.00;;;13.30;1.00;;;;;;5070526;28;20228;-65
2023/04/08 11:07:41;;;;;;;18.77;13.77;;;13.40;1.00;;;;;;5070646;28;20210;-65
2023/04/08 11:10:08;;;;;;;16.97;13.73;;;13.30;1.00;;;;;;5070259;28;20217;-65
2023/04/08 11:12:37;;;;;;;23.33;14.47;;;13.10;1.00;;;;;;5074805;28;20174;-65
2023/04/08 11:15:04;;;;;;;27.70;16.63;;;13.00;1.00;;;;;;5074569;28;20212;-64
2023/04/08 11:17:32;;;;;;;20.03;14.83;;;12.90;1.00;;;;;;5074436;28;20194;-65
2023/04/08 11:20:01;;;;;;;22.67;16.23;;;12.70;1.00;;;;;;5074438;28;20193;-65
2023/04/08 11:22:27;;;;;;;21.43;15.77;;;12.80;6.50;;;;;;5072551;28;20209;-65
2023/04/08 11:24:55;;;;;;;23.13;17.40;;;12.80;1.00;;;;;;5074158;28;20217;-64
2023/04/08 11:27:24;;;;;;;22.23;16.17;;;12.70;1.00;;;;;;5074139;28;20674;-65
2023/04/08 11:29:56;;;;;;;19.67;14.30;;;12.80;1.00;;;;;;5072627;28;20183;-65
2023/04/08 11:32:22;;;;;;;18.20;14.53;;;12.90;1.00;;;;;;5073116;28;20178;-65
2023/04/08 11:34:52;;;;;;;19.20;14.00;;;13.20;1.00;;;;;;5074549;28;20197;-65
2023/04/08 11:37:17;;;;;;;17.60;14.27;;;13.50;1.00;;;;;;5074335;28;20198;-65
2023/04/08 11:39:44;;;;;;;19.70;15.83;;;13.70;1.00;;;;;;5073979;28;20640;-64
2023/04/08 11:42:29;;;;;;;23.00;15.73;;;13.90;1.00;;;;;;5061592;28;20192;-64
2023/04/08 11:44:55;;;;;;;17.40;14.17;;;13.90;99.90;;;;;;5073223;28;20315;-65
2023/04/08 11:47:21;;;;;;;18.07;15.47;;;14.00;99.90;;;;;;5074007;28;20568;-65
2023/04/08 11:49:47;;;;;;;23.43;16.47;;;14.10;1.00;;;;;;5073485;28;20186;-65
2023/04/08 11:52:13;;;;;;;19.37;14.20;;;14.10;1.00;;;;;;5074010;28;20171;-64
2023/04/08 11:54:42;;;;;;;20.73;15.10;;;14.20;1.00;;;;;;5071706;28;20193;-64
2023/04/08 11:57:11;;;;;;;22.10;15.13;;;14.40;1.00;;;;;;5053946;28;20206;-65
2023/04/08 11:59:36;;;;;;;20.87;14.53;;;14.80;1.00;;;;;;5067169;28;20186;-65
2023/04/08 12:02:02;;;;;;;25.93;13.47;;;14.90;1.00;;;;;;5053841;28;20659;-64
2023/04/08 12:04:29;;;;;;;20.37;13.93;;;14.60;1.00;;;;;;5053550;28;20228;-64
2023/04/08 12:06:55;;;;;;;26.67;14.67;;;14.20;1.00;;;;;;5072786;28;20205;-65
2023/04/08 12:09:21;;;;;;;22.20;14.57;;;14.00;1.00;;;;;;5073074;28;20197;-65
2023/04/08 12:11:46;;;;;;;20.73;13.93;;;13.90;1.00;;;;;;5075573;28;20624;-65
2023/04/08 12:14:12;;;;;;;20.77;13.83;;;14.00;1.00;;;;;;5077458;28;20169;-65
2023/04/08 12:16:38;;;;;;;21.83;14.67;;;13.90;1.00;;;;;;5073869;28;20202;-65
2023/04/08 12:19:03;;;;;;;19.37;13.33;;;13.70;1.00;;;;;;5073582;28;20628;-65
2023/04/08 12:21:31;;;;;;;31.03;14.83;;;13.70;1.00;;;;;;5072436;28;20178;-65
2023/04/08 12:23:56;;;;;;;23.97;14.37;;;13.50;1.00;;;;;;5072743;28;20175;-65
2023/04/08 12:26:23;;;;;;;23.37;13.57;;;13.40;1.00;;;;;;5070921;28;20206;-65
2023/04/08 12:28:48;;;;;;;18.70;14.33;;;13.20;1.00;;;;;;5073307;28;20265;-65
2023/04/08 12:31:14;;;;;;;21.67;14.23;;;13.00;1.00;;;;;;5073037;28;20315;-65
2023/04/08 12:33:40;;;;;;;21.87;14.20;;;12.80;1.00;;;;;;5071674;28;20174;-65
2023/04/08 12:36:05;;;;;;;26.33;14.73;;;12.80;1.00;;;;;;5073112;28;20205;-65